Time;durP1;ratioP1;P1;durP2;ratioP2;P2;SDS_P1;SDS_P2;PMS_P1;PMS_P2;Temp;Humidity;BMP_temperature;BMP_pressure;BME280_temperature;BME280_humidity;BME280_pressure;Samples;Min_cycle;Max_cycle;Signal;HPM_P1;HPM_P2
2023/01/13 00:01:18;;;;;;;27.65;13.25;;;;;;;;;;4996253;28;20536;-68
2023/01/13 00:03:44;;;;;;;33.03;14.23;;;;;;;;;;4996063;28;20505;-69
2023/01/13 00:06:15;;;;;;;37.88;14.60;;;;;;;;;;4996195;28;20048;-69
2023/01/13 00:08:41;;;;;;;27.83;12.95;;;;;;;;;;4995551;28;20030;-69
2023/01/13 00:11:08;;;;;;;25.85;10.15;;;;;;;;;;4996006;28;20391;-69
2023/01/13 00:13:36;;;;;;;23.33;9.23;;;;;;;;;;4995951;28;20018;-69
2023/01/13 00:16:07;;;;;;;21.40;8.48;;;;;;;;;;4996114;28;20042;-69
2023/01/13 00:18:35;;;;;;;19.83;7.70;;;;;;;;;;4995967;28;20021;-69
2023/01/13 00:21:02;;;;;;;20.63;8.05;;;;;;;;;;4995714;28;20027;-68
2023/01/13 00:23:30;;;;;;;24.33;9.63;;;;;;;;;;4995632;28;20104;-69
2023/01/13 00:25:56;;;;;;;21.63;9.63;;;;;;;;;;4995998;28;20037;-69
2023/01/13 00:28:23;;;;;;;22.17;9.63;;;;;;;;;;4995630;28;20031;-69
2023/01/13 00:30:49;;;;;;;23.25;9.23;;;;;;;;;;4995930;28;20031;-68
2023/01/13 00:33:16;;;;;;;20.55;8.40;;;;;;;;;;4995669;28;20022;-68
2023/01/13 00:35:42;;;;;;;20.48;8.98;;;;;;;;;;4995175;28;20042;-69
2023/01/13 00:38:08;;;;;;;23.08;9.25;;;;;;;;;;4995658;28;20022;-69
2023/01/13 00:40:35;;;;;;;21.05;9.15;;;;;;;;;;5010984;28;20023;-68
2023/01/13 00:45:46;;;;;;;19.48;8.63;;;;;;;;;;4995539;28;20489;-69
2023/01/13 00:48:12;;;;;;;23.88;9.88;;;;;;;;;;4995265;28;20022;-69
2023/01/13 00:50:39;;;;;;;23.77;8.50;;;;;;;;;;4994967;28;20517;-69
2023/01/13 00:53:06;;;;;;;20.88;9.23;;;;;;;;;;4995508;28;20034;-69
2023/01/13 00:55:32;;;;;;;21.52;9.15;;;;;;;;;;4995210;28;20031;-69
2023/01/13 00:58:02;;;;;;;20.85;8.50;;;;;;;;;;4995325;28;20019;-69
2023/01/13 01:00:32;;;;;;;19.15;8.40;;;;;;;;;;4995054;28;20019;-69
2023/01/13 01:02:58;;;;;;;25.80;9.75;;;;;;;;;;4995242;28;20088;-69
2023/01/13 01:05:25;;;;;;;22.65;9.80;;;;;;;;;;4994387;28;20019;-69
2023/01/13 01:07:51;;;;;;;23.13;10.02;;;;;;;;;;4994568;28;20038;-67
2023/01/13 01:10:17;;;;;;;30.17;10.75;;;;;;;;;;4994681;28;20030;-67
2023/01/13 01:12:44;;;;;;;29.17;10.27;;;;;;;;;;4994763;28;20026;-68
2023/01/13 01:15:10;;;;;;;31.88;11.02;;;;;;;;;;4994788;28;20520;-68
2023/01/13 01:17:37;;;;;;;25.33;9.88;;;;;;;;;;4994759;28;20080;-68
2023/01/13 01:20:04;;;;;;;23.00;9.35;;;;;;;;;;4994671;28;20032;-69
2023/01/13 01:22:30;;;;;;;22.50;9.52;;;;;;;;;;4994687;28;20029;-68
2023/01/13 01:24:57;;;;;;;21.98;9.45;;;;;;;;;;4994657;28;20394;-68
2023/01/13 01:27:23;;;;;;;23.67;9.32;;;;;;;;;;4994851;28;20022;-69
2023/01/13 01:29:49;;;;;;;16.27;8.57;;;;;;;;;;4994595;28;20394;-68
2023/01/13 01:32:16;;;;;;;19.35;8.40;;;;;;;;;;4994760;28;20030;-68
2023/01/13 01:34:42;;;;;;;23.70;8.55;;;;;;;;;;4994006;28;20034;-68
2023/01/13 01:37:08;;;;;;;23.80;10.48;;;;;;;;;;4994802;28;20025;-68
2023/01/13 01:39:35;;;;;;;21.95;9.60;;;;;;;;;;4994241;28;20076;-69
2023/01/13 01:44:49;;;;;;;31.00;11.48;;;;;;;;;;4994229;28;20474;-68
2023/01/13 01:47:17;;;;;;;24.45;10.85;;;;;;;;;;4993551;28;20042;-69
2023/01/13 01:49:45;;;;;;;24.45;10.82;;;;;;;;;;4993822;28;20030;-68
2023/01/13 01:52:14;;;;;;;28.85;12.40;;;;;;;;;;4994016;28;20486;-69
2023/01/13 01:54:50;;;;;;;29.50;13.40;;;;;;;;;;4994085;28;20038;-68
2023/01/13 01:57:24;;;;;;;30.83;13.18;;;;;;;;;;4994172;28;20027;-68
2023/01/13 01:59:50;;;;;;;31.13;12.75;;;;;;;;;;4994294;28;20022;-69
2023/01/13 02:02:16;;;;;;;27.00;11.63;;;;;;;;;;4994060;28;20026;-69
2023/01/13 02:04:49;;;;;;;29.00;12.98;;;;;;;;;;4993748;28;20049;-68
2023/01/13 02:07:23;;;;;;;30.15;12.80;;;;;;;;;;4993868;28;20045;-68
2023/01/13 02:09:49;;;;;;;27.20;11.77;;;;;;;;;;4994068;28;20038;-69
2023/01/13 02:12:28;;;;;;;32.67;13.85;;;;;;;;;;4994253;28;20026;-69
2023/01/13 02:14:56;;;;;;;31.25;13.25;;;;;;;;;;4993626;28;20049;-69
2023/01/13 02:17:22;;;;;;;31.35;14.40;;;;;;;;;;4993118;28;20022;-68
2023/01/13 02:20:08;;;;;;;32.50;15.13;;;;;;;;;;4993738;28;20493;-69
2023/01/13 02:22:44;;;;;;;34.58;15.40;;;;;;;;;;4993693;28;20433;-69
2023/01/13 02:25:29;;;;;;;38.65;16.13;;;;;;;;;;4993538;28;20022;-68
2023/01/13 02:28:04;;;;;;;32.00;15.25;;;;;;;;;;4993934;28;20040;-69
2023/01/13 02:33:43;;;;;;;26.08;12.63;;;;;;;;;;4993064;28;20053;-69
2023/01/13 02:36:16;;;;;;;37.05;14.80;;;;;;;;;;4993292;28;20038;-69
2023/01/13 02:38:49;;;;;;;29.10;13.18;;;;;;;;;;4993218;28;20504;-69
2023/01/13 02:44:09;;;;;;;28.40;13.65;;;;;;;;;;4993359;28;20080;-69
2023/01/13 02:46:39;;;;;;;30.25;13.85;;;;;;;;;;4992981;28;20080;-69
2023/01/13 02:49:09;;;;;;;27.45;12.95;;;;;;;;;;4993204;28;20474;-69
2023/01/13 02:51:36;;;;;;;27.15;13.88;;;;;;;;;;4991912;28;20034;-68
2023/01/13 02:54:06;;;;;;;34.42;14.32;;;;;;;;;;4992923;28;20490;-69
2023/01/13 02:56:34;;;;;;;25.63;13.35;;;;;;;;;;4993423;28;20041;-69
2023/01/13 02:59:01;;;;;;;29.75;14.02;;;;;;;;;;4993093;28;20445;-69
2023/01/13 03:01:28;;;;;;;25.10;13.52;;;;;;;;;;4992653;28;20030;-69
2023/01/13 03:03:54;;;;;;;30.52;13.80;;;;;;;;;;4993202;28;20496;-69
2023/01/13 03:06:48;;;;;;;26.63;12.00;;;;;;;;;;4992924;28;20047;-69
2023/01/13 03:09:22;;;;;;;27.55;12.02;;;;;;;;;;4992922;28;20064;-69
2023/01/13 03:12:00;;;;;;;28.95;11.80;;;;;;;;;;4992853;28;20500;-68
2023/01/13 03:14:49;;;;;;;25.60;12.38;;;;;;;;;;4992701;28;20033;-68
2023/01/13 03:17:29;;;;;;;27.30;12.95;;;;;;;;;;4992671;28;20023;-68
2023/01/13 03:19:56;;;;;;;32.03;12.50;;;;;;;;;;5007938;28;20026;-69
2023/01/13 03:22:33;;;;;;;31.33;13.32;;;;;;;;;;4992830;28;20036;-68
2023/01/13 03:25:02;;;;;;;35.63;13.18;;;;;;;;;;4992689;28;20413;-69
2023/01/13 03:27:55;;;;;;;32.55;13.95;;;;;;;;;;4975574;28;20026;-68
2023/01/13 03:30:26;;;;;;;27.20;12.52;;;;;;;;;;4991682;28;20049;-69
2023/01/13 03:32:52;;;;;;;;;;;;;;;;;;4997472;28;20029;-68
2023/01/13 03:35:23;;;;;;;24.30;11.45;;;;;;;;;;4996857;28;19918;-69
2023/01/13 03:37:49;;;;;;;;;;;;;;;;;;4997394;28;20033;-69
2023/01/13 03:40:21;;;;;;;26.10;10.38;;;;;;;;;;4996680;28;19912;-69
2023/01/13 03:45:37;;;;;;;29.00;11.43;;;;;;;;;;5013566;28;20030;-69
2023/01/13 03:48:06;;;;;;;24.38;11.35;;;;;;;;;;4997389;28;20034;-68
2023/01/13 03:50:40;;;;;;;26.85;12.25;;;;;;;;;;5013865;28;20160;-69
2023/01/13 03:53:10;;;;;;;26.42;12.23;;;;;;;;;;5013821;28;20417;-69
2023/01/13 03:55:39;;;;;;;28.48;12.45;;;;;;;;;;5013610;28;20037;-69
2023/01/13 03:58:18;;;;;;;29.75;13.50;;;;;;;;;;5013935;28;20038;-69
2023/01/13 04:00:57;;;;;;;30.35;13.10;;;;;;;;;;4996856;28;20022;-69
2023/01/13 04:03:26;;;;;;;27.65;12.32;;;;;;;;;;5013576;28;20040;-69
2023/01/13 04:05:57;;;;;;;27.88;12.93;;;;;;;;;;5013243;28;20037;-68
2023/01/13 04:08:27;;;;;;;24.67;13.00;;;;;;;;;;5010535;28;20042;-69
2023/01/13 04:10:59;;;;;;;24.90;12.95;;;;;;;;;;4994092;28;20038;-69
2023/01/13 04:13:28;;;;;;;24.70;13.25;;;;;;;;;;4993620;28;20022;-69
2023/01/13 04:15:54;;;;;;;30.00;12.93;;;;;;;;;;4993864;28;20052;-69
2023/01/13 04:18:23;;;;;;;27.17;12.68;;;;;;;;;;4994056;28;20043;-69
2023/01/13 04:20:50;;;;;;;27.23;12.85;;;;;;;;;;4993618;28;20030;-68
2023/01/13 04:23:17;;;;;;;30.92;13.52;;;;;;;;;;4995334;28;20048;-68
2023/01/13 04:25:44;;;;;;;26.95;13.98;;;;;;;;;;4995926;28;20030;-68
2023/01/13 04:28:11;;;;;;;31.33;13.95;;;;;;;;;;4994407;28;20037;-69
2023/01/13 04:30:37;;;;;;;29.45;14.15;;;;;;;;;;4995814;28;20027;-69
2023/01/13 04:33:04;;;;;;;28.17;14.13;;;;;;;;;;4995860;28;20034;-69
2023/01/13 04:35:31;;;;;;;35.40;14.60;;;;;;;;;;4994321;28;20041;-69
2023/01/13 04:38:00;;;;;;;33.20;14.57;;;;;;;;;;4995866;28;20023;-68
2023/01/13 04:40:26;;;;;;;29.83;14.05;;;;;;;;;;4995259;28;20540;-69
2023/01/13 04:42:53;;;;;;;26.48;13.80;;;;;;;;;;4993805;28;20398;-69
2023/01/13 04:45:19;;;;;;;24.48;13.85;;;;;;;;;;4995708;28;20022;-69
2023/01/13 04:47:47;;;;;;;27.52;14.25;;;;;;;;;;4995433;28;20390;-69
2023/01/13 04:50:13;;;;;;;28.08;13.88;;;;;;;;;;4995329;28;20027;-68
2023/01/13 04:52:40;;;;;;;28.05;13.15;;;;;;;;;;4995214;28;20402;-68
2023/01/13 04:55:07;;;;;;;30.83;13.88;;;;;;;;;;4995330;28;20036;-68
2023/01/13 04:57:33;;;;;;;33.15;14.10;;;;;;;;;;4993557;28;20031;-69
2023/01/13 05:00:00;;;;;;;23.48;13.20;;;;;;;;;;4993990;28;20406;-69
2023/01/13 05:02:27;;;;;;;31.30;14.75;;;;;;;;;;4994419;28;20032;-69
2023/01/13 05:04:53;;;;;;;26.58;13.75;;;;;;;;;;4994905;28;20084;-68
2023/01/13 05:07:19;;;;;;;31.00;14.10;;;;;;;;;;4995142;28;20088;-69
2023/01/13 05:09:46;;;;;;;27.45;13.82;;;;;;;;;;4994800;28;20030;-68
2023/01/13 05:17:42;;;;;;;26.80;13.18;;;;;;;;;;4994887;28;20402;-69
2023/01/13 05:20:09;;;;;;;33.40;13.52;;;;;;;;;;4994768;28;20036;-69
2023/01/13 05:25:21;;;;;;;30.13;13.45;;;;;;;;;;4994579;28;20026;-69
2023/01/13 05:27:52;;;;;;;30.15;13.38;;;;;;;;;;4994341;28;20031;-69
2023/01/13 05:30:19;;;;;;;30.75;13.32;;;;;;;;;;4994701;28;20030;-68
2023/01/13 05:32:46;;;;;;;25.85;13.13;;;;;;;;;;4994513;28;20037;-69
2023/01/13 05:35:12;;;;;;;28.70;13.45;;;;;;;;;;4994555;28;20041;-69
2023/01/13 05:37:38;;;;;;;27.83;12.90;;;;;;;;;;4994722;28;20022;-69
2023/01/13 05:45:53;;;;;;;26.70;12.48;;;;;;;;;;4994627;28;20026;-69
2023/01/13 05:48:21;;;;;;;27.75;13.23;;;;;;;;;;4994118;28;20360;-69
2023/01/13 05:50:48;;;;;;;31.45;13.05;;;;;;;;;;4994207;28;20022;-69
2023/01/13 05:53:14;;;;;;;27.60;13.55;;;;;;;;;;4993499;28;20037;-69
2023/01/13 05:55:41;;;;;;;26.67;12.63;;;;;;;;;;4993685;28;20045;-69
2023/01/13 05:58:08;;;;;;;25.33;12.77;;;;;;;;;;4994061;28;20023;-69
2023/01/13 06:00:35;;;;;;;34.25;13.55;;;;;;;;;;4992685;28;20035;-69
2023/01/13 06:03:01;;;;;;;27.23;11.60;;;;;;;;;;4994207;28;20042;-69
2023/01/13 06:05:28;;;;;;;22.73;12.35;;;;;;;;;;4993921;28;20406;-69
2023/01/13 06:07:58;;;;;;;28.52;13.05;;;;;;;;;;4993816;28;20525;-69
2023/01/13 06:10:25;;;;;;;30.20;13.40;;;;;;;;;;4993422;28;20026;-68
2023/01/13 06:12:51;;;;;;;31.60;14.32;;;;;;;;;;4993948;28;20026;-69
2023/01/13 06:15:18;;;;;;;28.23;14.02;;;;;;;;;;4993900;28;20409;-69
2023/01/13 06:17:44;;;;;;;31.20;14.02;;;;;;;;;;4993759;28;20034;-69
2023/01/13 06:20:11;;;;;;;25.55;13.45;;;;;;;;;;4993779;28;20042;-69
2023/01/13 06:22:39;;;;;;;41.95;19.50;;;;;;;;;;4993685;28;20015;-69
2023/01/13 06:25:26;;;;;;;34.22;16.65;;;;;;;;;;4993337;28;20033;-68
2023/01/13 06:27:52;;;;;;;47.78;22.30;;;;;;;;;;4914537;29;20040;-69
2023/01/13 06:30:19;;;;;;;50.97;23.17;;;;;;;;;;4914720;29;20036;-69
2023/01/13 06:32:48;;;;;;;55.88;24.17;;;;;;;;;;4914552;29;20576;-69
2023/01/13 06:35:17;;;;;;;37.45;18.85;;;;;;;;;;4914397;29;20047;-69
2023/01/13 06:37:44;;;;;;;30.35;15.93;;;;;;;;;;4914383;29;20565;-69
2023/01/13 06:40:11;;;;;;;31.83;16.42;;;;;;;;;;4913803;29;20040;-69
2023/01/13 06:45:24;;;;;;;38.55;17.30;;;;;;;;;;4914296;29;20032;-69
2023/01/13 06:47:50;;;;;;;34.65;18.02;;;;;;;;;;4914173;29;20028;-69
2023/01/13 06:50:17;;;;;;;33.75;17.02;;;;;;;;;;4914088;29;20519;-69
2023/01/13 06:52:44;;;;;;;33.13;16.58;;;;;;;;;;4913653;29;20107;-69
2023/01/13 06:55:10;;;;;;;33.22;16.95;;;;;;;;;;4914103;29;20628;-69
2023/01/13 06:57:46;;;;;;;45.33;22.08;;;;;;;;;;4913930;29;20032;-69
2023/01/13 07:00:14;;;;;;;39.15;20.75;;;;;;;;;;4913665;29;20517;-69
2023/01/13 07:02:41;;;;;;;39.03;20.60;;;;;;;;;;4931612;29;20435;-69
2023/01/13 07:05:07;;;;;;;39.53;23.30;;;;;;;;;;4967186;28;20042;-69
2023/01/13 07:07:34;;;;;;;39.13;21.90;;;;;;;;;;4997743;28;20033;-69
2023/01/13 07:10:00;;;;;;;36.45;18.92;;;;;;;;;;5007347;28;20393;-69
2023/01/13 07:12:27;;;;;;;39.28;20.17;;;;;;;;;;5009791;28;20091;-69
2023/01/13 07:17:38;;;;;;;34.65;18.40;;;;;;;;;;5007368;28;20030;-69
2023/01/13 07:20:05;;;;;;;37.70;18.90;;;;;;;;;;4998318;28;20033;-69
2023/01/13 07:22:31;;;;;;;36.15;18.20;;;;;;;;;;4997449;28;20040;-68
2023/01/13 07:24:57;;;;;;;32.08;16.70;;;;;;;;;;4991684;28;20499;-69
2023/01/13 07:27:24;;;;;;;23.77;10.95;;;;;;;;;;5001180;28;20392;-69
2023/01/13 07:29:50;;;;;;;37.60;15.50;;;;;;;;;;5002122;28;20021;-69
2023/01/13 07:32:16;;;;;;;40.67;22.17;;;;;;;;;;5007504;28;20471;-69
2023/01/13 07:34:42;;;;;;;29.45;16.70;;;;;;;;;;5011484;28;20030;-69
2023/01/13 07:37:09;;;;;;;26.48;14.10;;;;;;;;;;5011431;28;20030;-69
2023/01/13 07:39:35;;;;;;;19.98;7.57;;;;;;;;;;5011656;28;20026;-69
2023/01/13 07:44:46;;;;;;;20.42;9.80;;;;;;;;;;5007923;28;20034;-69
2023/01/13 07:47:13;;;;;;;29.50;14.65;;;;;;;;;;5000312;28;20032;-68
2023/01/13 07:49:39;;;;;;;28.00;13.57;;;;;;;;;;5006988;28;20045;-69
2023/01/13 07:52:06;;;;;;;42.47;21.65;;;;;;;;;;4990716;28;20084;-69
2023/01/13 07:54:32;;;;;;;20.13;11.02;;;;;;;;;;4990821;28;20402;-69
2023/01/13 07:56:58;;;;;;;22.23;11.40;;;;;;;;;;5003496;28;20034;-69
2023/01/13 07:59:25;;;;;;;21.58;9.68;;;;;;;;;;5003001;28;20030;-70
2023/01/13 08:01:54;;;;;;;11.55;5.28;;;;;;;;;;5009412;28;20040;-69
2023/01/13 08:04:20;;;;;;;33.85;15.35;;;;;;;;;;5010037;28;20025;-69
2023/01/13 08:06:47;;;;;;;57.17;26.48;;;;;;;;;;5009575;28;20220;-70
2023/01/13 08:09:14;;;;;;;65.57;30.90;;;;;;;;;;4999579;28;20030;-70
2023/01/13 08:11:40;;;;;;;22.75;14.25;;;;;;;;;;5004925;28;20037;-69
2023/01/13 08:14:06;;;;;;;24.20;11.45;;;;;;;;;;5003733;28;20030;-67
2023/01/13 08:16:33;;;;;;;21.30;11.85;;;;;;;;;;5013159;28;20038;-70
2023/01/13 08:19:00;;;;;;;24.08;13.52;;;;;;;;;;5014705;28;20026;-70
2023/01/13 08:21:26;;;;;;;39.10;20.55;;;;;;;;;;5014048;28;20022;-70
2023/01/13 08:23:52;;;;;;;104.00;56.10;;;;;;;;;;5014301;28;20034;-70
2023/01/13 08:26:19;;;;;;;18.77;11.55;;;;;;;;;;5005460;28;20027;-70
2023/01/13 08:28:45;;;;;;;16.48;9.68;;;;;;;;;;5005115;28;20032;-70
2023/01/13 08:31:12;;;;;;;33.85;18.33;;;;;;;;;;4994917;28;20494;-69
2023/01/13 08:33:39;;;;;;;21.35;13.00;;;;;;;;;;4996251;28;20026;-70
2023/01/13 08:36:07;;;;;;;30.65;18.63;;;;;;;;;;4992942;28;20038;-70
2023/01/13 08:38:34;;;;;;;67.78;32.92;;;;;;;;;;4994641;28;20426;-70
2023/01/13 08:41:01;;;;;;;67.32;32.85;;;;;;;;;;4994822;28;20026;-69
2023/01/13 08:43:27;;;;;;;20.05;10.15;;;;;;;;;;4994585;28;20033;-70
2023/01/13 08:45:58;;;;;;;39.70;20.70;;;;;;;;;;5011128;28;20030;-70
2023/01/13 08:48:24;;;;;;;38.30;18.83;;;;;;;;;;5013663;28;20496;-70
2023/01/13 08:50:52;;;;;;;37.63;19.88;;;;;;;;;;5013431;28;20022;-70
2023/01/13 08:53:18;;;;;;;16.13;9.30;;;;;;;;;;5014046;28;20036;-70
2023/01/13 08:55:44;;;;;;;27.10;12.88;;;;;;;;;;5007309;28;20030;-70
2023/01/13 08:58:11;;;;;;;39.10;22.65;;;;;;;;;;4994494;28;20038;-70
2023/01/13 09:00:37;;;;;;;27.17;16.83;;;;;;;;;;4999340;28;20483;-70
2023/01/13 09:03:03;;;;;;;13.75;8.20;;;;;;;;;;5021194;28;20040;-70
2023/01/13 09:05:30;;;;;;;13.02;8.43;;;;;;;;;;5005647;28;20034;-70
2023/01/13 09:07:56;;;;;;;14.75;8.90;;;;;;;;;;5004631;28;20104;-70
2023/01/13 09:10:23;;;;;;;18.33;11.57;;;;;;;;;;5012623;28;20030;-70
2023/01/13 09:15:33;;;;;;;21.38;13.15;;;;;;;;;;4993700;28;20034;-70
2023/01/13 09:18:01;;;;;;;15.18;9.23;;;;;;;;;;4993304;28;20034;-70
2023/01/13 09:20:27;;;;;;;54.00;29.60;;;;;;;;;;4992210;28;20030;-70
2023/01/13 09:22:54;;;;;;;32.22;19.38;;;;;;;;;;4992275;28;20033;-70
2023/01/13 09:25:20;;;;;;;13.02;7.75;;;;;;;;;;5009604;28;20030;-69
2023/01/13 09:27:46;;;;;;;4.03;2.63;;;;;;;;;;4998626;28;20757;-70
2023/01/13 09:30:13;;;;;;;2.22;1.60;;;;;;;;;;4993840;28;20030;-69
2023/01/13 09:32:39;;;;;;;2.22;1.40;;;;;;;;;;4993105;28;20026;-70
2023/01/13 09:35:06;;;;;;;1.27;1.00;;;;;;;;;;4993342;28;20031;-70
2023/01/13 09:37:34;;;;;;;4.47;1.27;;;;;;;;;;4997626;28;20022;-70
2023/01/13 09:40:01;;;;;;;6.00;1.15;;;;;;;;;;4993389;28;20499;-70
2023/01/13 09:45:19;;;;;;;1.83;1.20;;;;;;;;;;4993086;28;20026;-70
2023/01/13 09:47:50;;;;;;;3.22;2.17;;;;;;;;;;4992537;28;20018;-70
2023/01/13 09:50:17;;;;;;;;;;;;;;;;;;5002749;28;20084;-70
2023/01/13 09:52:57;;;;;;;3.47;1.08;;;;;;;;;;5066973;28;20448;-69
2023/01/13 09:55:33;;;;;;;1.27;1.10;;;;;;;;;;5053269;28;20025;-70
2023/01/13 09:58:01;;;;;;;25.13;12.00;;;;;;;;;;5045033;28;20515;-70
2023/01/13 10:00:34;;;;;;;59.55;24.05;;;;;;;;;;5046731;28;20020;-70
2023/01/13 10:03:20;;;;;;;34.78;16.55;;;;;;;;;;5047670;28;20048;-70
2023/01/13 10:05:48;;;;;;;40.80;20.40;;;;;;;;;;5048115;28;20029;-70
2023/01/13 10:08:22;;;;;;;39.20;20.38;;;;;;;;;;5047686;28;20087;-70
2023/01/13 10:10:50;;;;;;;13.00;7.15;;;;;;;;;;5048206;28;20029;-71
2023/01/13 10:13:19;;;;;;;3.80;1.98;;;;;;;;;;5058053;28;20046;-70
2023/01/13 10:15:59;;;;;;;7.45;4.53;;;;;;;;;;5067682;28;20021;-70
2023/01/13 10:18:45;;;;;;;5.15;2.13;;;;;;;;;;5067934;28;20031;-70
2023/01/13 10:21:18;;;;;;;3.08;1.50;;;;;;;;;;5064030;28;20032;-70
2023/01/13 10:23:52;;;;;;;7.20;4.38;;;;;;;;;;5067762;28;20025;-70
2023/01/13 10:26:25;;;;;;;3.75;1.70;;;;;;;;;;5067626;28;20032;-70
2023/01/13 10:28:55;;;;;;;3.42;2.03;;;;;;;;;;5062089;28;20025;-70
2023/01/13 10:31:22;;;;;;;0.80;0.80;;;;;;;;;;5027363;28;20579;-70
2023/01/13 10:33:57;;;;;;;9.75;5.75;;;;;;;;;;5036893;28;20091;-69
2023/01/13 10:36:23;;;;;;;5.18;1.77;;;;;;;;;;5044341;28;20022;-69
2023/01/13 10:38:50;;;;;;;3.22;1.23;;;;;;;;;;5046814;28;20035;-70
2023/01/13 10:41:19;;;;;;;3.20;2.03;;;;;;;;;;5047706;28;20037;-70
2023/01/13 10:43:58;;;;;;;1.92;1.10;;;;;;;;;;5047044;28;20401;-68
2023/01/13 10:46:24;;;;;;;3.22;0.90;;;;;;;;;;5047148;28;20041;-68
2023/01/13 10:48:58;;;;;;;2.35;0.98;;;;;;;;;;5046828;28;20375;-69
2023/01/13 10:51:39;;;;;;;0.80;0.60;;;;;;;;;;5047003;28;20061;-69
2023/01/13 10:54:12;;;;;;;1.23;1.05;;;;;;;;;;5046858;28;20051;-69
2023/01/13 10:56:42;;;;;;;4.43;3.05;;;;;;;;;;5047176;28;20033;-70
2023/01/13 10:59:17;;;;;;;8.27;5.15;;;;;;;;;;5046703;28;20031;-70
2023/01/13 11:02:03;;;;;;;3.58;2.28;;;;;;;;;;5046892;28;20486;-70
2023/01/13 11:04:29;;;;;;;4.43;2.35;;;;;;;;;;5032601;28;20506;-70
2023/01/13 11:06:56;;;;;;;17.23;11.02;;;;;;;;;;5033359;28;20017;-70
2023/01/13 11:09:23;;;;;;;17.30;10.75;;;;;;;;;;5033390;28;20052;-69
2023/01/13 11:11:54;;;;;;;6.85;3.90;;;;;;;;;;5033448;28;20040;-69
2023/01/13 11:14:38;;;;;;;6.32;4.13;;;;;;;;;;5032366;28;20422;-70
2023/01/13 11:17:10;;;;;;;6.60;3.72;;;;;;;;;;5033574;28;20037;-70
2023/01/13 11:19:39;;;;;;;20.42;12.38;;;;;;;;;;5033496;28;20025;-70
2023/01/13 11:22:12;;;;;;;12.43;7.47;;;;;;;;;;5064992;28;20021;-70
2023/01/13 11:24:41;;;;;;;7.97;4.72;;;;;;;;;;5033193;28;20021;-69
2023/01/13 11:27:08;;;;;;;6.78;4.28;;;;;;;;;;5033250;28;20569;-71
2023/01/13 11:29:38;;;;;;;19.77;10.18;;;;;;;;;;5032940;28;20025;-69
2023/01/13 11:32:21;;;;;;;22.88;9.55;;;;;;;;;;5033132;28;20025;-69
2023/01/13 11:34:52;;;;;;;17.92;7.53;;;;;;;;;;5033062;28;20543;-70
2023/01/13 11:37:21;;;;;;;11.52;6.43;;;;;;;;;;5032544;28;20021;-69
2023/01/13 11:39:52;;;;;;;21.77;11.73;;;;;;;;;;5032488;28;20031;-70
2023/01/13 11:42:24;;;;;;;17.17;7.93;;;;;;;;;;5033063;28;20037;-69
2023/01/13 11:44:59;;;;;;;8.98;5.00;;;;;;;;;;5032632;28;20030;-69
2023/01/13 11:47:26;;;;;;;8.82;4.95;;;;;;;;;;5031453;28;20030;-70
2023/01/13 11:49:52;;;;;;;8.15;5.53;;;;;;;;;;5033407;28;20029;-70
2023/01/13 11:52:21;;;;;;;5.78;3.47;;;;;;;;;;5032557;28;20425;-69
2023/01/13 11:54:48;;;;;;;6.43;3.17;;;;;;;;;;5032886;28;20029;-69
2023/01/13 11:57:26;;;;;;;9.05;4.90;;;;;;;;;;5032601;28;20550;-70
2023/01/13 12:00:11;;;;;;;3.47;1.58;;;;;;;;;;5032903;28;20018;-70
2023/01/13 12:02:44;;;;;;;5.97;2.90;;;;;;;;;;5032758;28;20040;-70
2023/01/13 12:05:19;;;;;;;7.43;4.65;;;;;;;;;;5032855;28;20389;-70
2023/01/13 12:07:56;;;;;;;14.48;8.32;;;;;;;;;;5032733;28;20029;-72
2023/01/13 12:10:24;;;;;;;8.90;5.25;;;;;;;;;;5031385;28;20040;-69
2023/01/13 12:12:51;;;;;;;8.88;5.22;;;;;;;;;;5032090;28;20409;-69
2023/01/13 12:15:17;;;;;;;6.28;4.03;;;;;;;;;;5031557;28;20032;-69
2023/01/13 12:17:49;;;;;;;11.00;6.55;;;;;;;;;;5032352;28;20028;-68
2023/01/13 12:20:38;;;;;;;6.40;4.10;;;;;;;;;;5032465;28;20490;-69
2023/01/13 12:23:07;;;;;;;8.43;5.10;;;;;;;;;;5029902;28;20068;-69
2023/01/13 12:25:38;;;;;;;9.82;6.43;;;;;;;;;;5029824;28;20056;-69
2023/01/13 12:28:16;;;;;;;11.50;5.75;;;;;;;;;;5029647;28;20037;-69
2023/01/13 12:30:50;;;;;;;4.80;3.08;;;;;;;;;;5030206;28;20025;-69
2023/01/13 12:33:16;;;;;;;9.90;4.97;;;;;;;;;;5030795;28;20402;-69
2023/01/13 12:35:50;;;;;;;8.13;4.15;;;;;;;;;;5026374;28;20035;-68
2023/01/13 12:38:26;;;;;;;12.73;7.15;;;;;;;;;;5023236;28;20041;-68
2023/01/13 12:40:58;;;;;;;8.68;5.57;;;;;;;;;;5012258;28;20029;-69
2023/01/13 12:46:19;;;;;;;11.23;4.28;;;;;;;;;;5027897;28;20025;-70
2023/01/13 12:48:55;;;;;;;5.22;2.85;;;;;;;;;;5023105;28;20044;-70
2023/01/13 12:51:21;;;;;;;3.45;1.92;;;;;;;;;;5010378;28;20046;-70
2023/01/13 12:53:48;;;;;;;2.70;1.35;;;;;;;;;;5018728;28;20033;-70
2023/01/13 12:56:22;;;;;;;3.13;1.80;;;;;;;;;;5029663;28;20026;-71
2023/01/13 12:58:48;;;;;;;4.32;2.45;;;;;;;;;;5030085;28;20021;-69
2023/01/13 13:01:15;;;;;;;3.53;1.92;;;;;;;;;;5032445;28;20086;-69
2023/01/13 13:03:41;;;;;;;2.25;0.77;;;;;;;;;;5032325;28;20017;-68
2023/01/13 13:06:18;;;;;;;1.95;1.27;;;;;;;;;;5041978;28;20024;-70
2023/01/13 13:09:23;;;;;;;2.95;1.63;;;;;;;;;;5046119;28;20021;-70
2023/01/13 13:14:48;;;;;;;5.53;1.20;;;;;;;;;;5026069;28;20040;-70
2023/01/13 13:17:33;;;;;;;3.65;1.52;;;;;;;;;;5021407;28;20048;-70
2023/01/13 13:20:00;;;;;;;5.55;2.05;;;;;;;;;;5027311;28;20025;-70
2023/01/13 13:22:26;;;;;;;2.17;1.42;;;;;;;;;;5028576;28;20650;-70
2023/01/13 13:24:58;;;;;;;3.60;2.42;;;;;;;;;;5027722;28;20029;-70
2023/01/13 13:27:36;;;;;;;4.95;2.40;;;;;;;;;;5028341;28;20033;-70
2023/01/13 13:30:21;;;;;;;2.40;1.85;;;;;;;;;;5021026;28;20042;-70
2023/01/13 13:33:06;;;;;;;3.97;2.55;;;;;;;;;;5016649;28;20029;-70
2023/01/13 13:35:35;;;;;;;4.88;2.50;;;;;;;;;;5004188;28;20029;-70
2023/01/13 13:47:17;;;;;;;2.28;1.50;;;;;;;;;;4998318;28;20022;-70
2023/01/13 13:49:48;;;;;;;4.43;3.13;;;;;;;;;;5008749;28;20473;-71
2023/01/13 13:52:20;;;;;;;4.38;2.65;;;;;;;;;;5013301;28;20042;-70
2023/01/13 13:54:50;;;;;;;0.90;0.60;;;;;;;;;;5006089;28;20068;-70
2023/01/13 13:57:29;;;;;;;10.80;5.97;;;;;;;;;;4992963;28;20042;-70
2023/01/13 13:59:57;;;;;;;2.25;0.98;;;;;;;;;;4995042;28;20268;-70
2023/01/13 14:02:28;;;;;;;7.13;3.25;;;;;;;;;;5004206;28;20046;-71
2023/01/13 14:04:55;;;;;;;;;;;;;;;;;;4989450;28;20022;-71
2023/01/13 14:07:21;;;;;;;2.80;0.82;;;;;;;;;;4999129;28;20376;-71
2023/01/13 14:09:49;;;;;;;2.25;0.80;;;;;;;;;;4989578;28;20140;-71
2023/01/13 14:12:20;;;;;;;1.55;0.80;;;;;;;;;;5012748;28;20038;-72
2023/01/13 14:14:48;;;;;;;2.25;1.00;;;;;;;;;;5021987;28;20049;-70
2023/01/13 14:17:25;;;;;;;4.50;0.70;;;;;;;;;;5034821;28;20025;-70
2023/01/13 14:19:52;;;;;;;3.60;1.10;;;;;;;;;;5034538;28;20033;-70
2023/01/13 14:22:19;;;;;;;4.97;1.70;;;;;;;;;;5034529;28;20036;-71
2023/01/13 14:24:50;;;;;;;3.10;1.17;;;;;;;;;;5029982;28;20040;-70
2023/01/13 14:27:17;;;;;;;5.55;1.08;;;;;;;;;;5031666;28;20032;-71
2023/01/13 14:29:44;;;;;;;2.45;1.10;;;;;;;;;;5039834;28;20055;-70
2023/01/13 14:32:14;;;;;;;2.92;0.80;;;;;;;;;;5031190;28;20460;-70
2023/01/13 14:34:40;;;;;;;2.53;1.10;;;;;;;;;;5025667;28;20025;-70
2023/01/13 14:37:25;;;;;;;4.28;1.88;;;;;;;;;;5037518;28;20025;-71
2023/01/13 14:39:51;;;;;;;3.17;1.33;;;;;;;;;;5041932;28;20052;-71
2023/01/13 14:42:18;;;;;;;2.42;0.80;;;;;;;;;;5033614;28;20036;-70
2023/01/13 14:44:49;;;;;;;3.45;1.50;;;;;;;;;;5030751;28;20024;-71
2023/01/13 14:47:15;;;;;;;;;;;;;;;;;;5034836;28;20025;-71
2023/01/13 14:49:50;;;;;;;3.10;1.63;;;;;;;;;;5031951;28;19909;-71
2023/01/13 14:52:19;;;;;;;4.38;1.02;;;;;;;;;;5032622;28;20509;-70
2023/01/13 14:54:46;;;;;;;11.95;1.25;;;;;;;;;;5033499;28;20049;-70
2023/01/13 14:57:13;;;;;;;3.00;0.70;;;;;;;;;;5033485;28;20028;-71
2023/01/13 14:59:40;;;;;;;4.25;0.65;;;;;;;;;;5032929;28;20029;-71
2023/01/13 15:02:24;;;;;;;3.75;1.50;;;;;;;;;;5033485;28;20029;-71
2023/01/13 15:04:53;;;;;;;5.07;1.83;;;;;;;;;;5032778;28;20036;-70
2023/01/13 15:07:28;;;;;;;2.45;1.00;;;;;;;;;;5032970;28;20029;-71
2023/01/13 15:09:55;;;;;;;3.45;1.10;;;;;;;;;;5033679;28;20028;-70
2023/01/13 15:12:23;;;;;;;2.85;0.60;;;;;;;;;;5033293;28;20440;-70
2023/01/13 15:14:50;;;;;;;4.57;1.15;;;;;;;;;;5033076;28;20026;-71
2023/01/13 15:17:17;;;;;;;4.05;0.93;;;;;;;;;;5038584;28;20020;-70
2023/01/13 15:19:44;;;;;;;5.00;1.35;;;;;;;;;;5053071;28;20039;-70
2023/01/13 15:22:10;;;;;;;7.10;1.40;;;;;;;;;;5040298;28;20020;-70
2023/01/13 15:24:36;;;;;;;3.03;1.00;;;;;;;;;;5032210;28;20031;-71
2023/01/13 15:27:04;;;;;;;6.13;1.20;;;;;;;;;;5033453;28;20028;-70
2023/01/13 15:29:30;;;;;;;4.68;1.00;;;;;;;;;;5032849;28;20021;-71
2023/01/13 15:31:56;;;;;;;6.22;1.90;;;;;;;;;;5031357;28;20033;-70
2023/01/13 15:34:23;;;;;;;3.35;1.30;;;;;;;;;;5035036;28;20386;-71
2023/01/13 15:36:49;;;;;;;7.43;1.40;;;;;;;;;;5032361;28;20048;-71
2023/01/13 15:39:15;;;;;;;2.65;1.13;;;;;;;;;;5033134;28;20381;-71